Weather at Ningbo Lishe International Airport

Public forecast

Using degrees Celsius for public forecast. Weather courtesy of forecast.io.

Current aviation weather report (METAR) for Ningbo Lishe International Airport

Retrieved 2021/12/05 11:00 UTC (49 minutes ago):

ZSNB 051100Z VRB01MPS CAVOK 11/06 Q1025 NOSIG

Aviation forecast (TAF) for Ningbo Lishe International Airport

Retrieved 2021/12/05 06:03 UTC (6 hours ago):

TAF ZSNB 050304Z 0506/0606 12004MPS 6000 NSC TX18/0606Z TN06/0521Z